createdAt,value
2018-04-26T00:02:47.210Z,100548.87
2018-04-26T00:05:50.647Z,100543.38
2018-04-26T00:08:53.950Z,100543.30
2018-04-26T00:11:57.283Z,100544.02
2018-04-26T00:15:01.440Z,100536.63
2018-04-26T00:18:04.770Z,100536.00
2018-04-26T00:21:08.064Z,100527.33
2018-04-26T00:24:11.395Z,100529.59
2018-04-26T00:27:16.526Z,100531.34
2018-04-26T00:30:21.014Z,100525.43
2018-04-26T00:33:24.308Z,100523.77
2018-04-26T00:36:27.697Z,100527.72
2018-04-26T00:39:31.113Z,100526.99
2018-04-26T00:42:34.436Z,100519.22
2018-04-26T00:45:37.801Z,100514.73
2018-04-26T00:48:41.138Z,100514.67
2018-04-26T00:52:04.221Z,100513.20
2018-04-26T00:55:07.546Z,100514.84
2018-04-26T00:58:10.851Z,100510.46
2018-04-26T01:01:14.248Z,100512.14
2018-04-26T01:04:17.648Z,100511.78
2018-04-26T01:07:20.970Z,100512.70
2018-04-26T01:10:24.353Z,100511.22
2018-04-26T01:13:27.712Z,100511.16
2018-04-26T01:16:31.012Z,100510.55
2018-04-26T01:19:34.344Z,100501.42
2018-04-26T01:22:37.646Z,100510.36
2018-04-26T01:25:41.039Z,100504.36
2018-04-26T01:28:44.337Z,100505.59
2018-04-26T01:31:47.674Z,100505.23
2018-04-26T01:34:50.985Z,100506.91
2018-04-26T01:37:55.161Z,100502.72
2018-04-26T01:40:58.462Z,100491.92
2018-04-26T01:44:01.853Z,100500.42
2018-04-26T01:47:05.262Z,100496.62
2018-04-26T01:50:08.589Z,100492.43
2018-04-26T01:53:11.959Z,100491.20
2018-04-26T01:56:15.306Z,100497.00
2018-04-26T01:59:19.469Z,100490.67
2018-04-26T02:02:22.876Z,100486.03
2018-04-26T02:05:26.182Z,100484.86
2018-04-26T02:08:29.520Z,100481.43
2018-04-26T02:11:32.857Z,100474.08
2018-04-26T02:14:36.169Z,100474.53
2018-04-26T02:17:39.557Z,100471.87
2018-04-26T02:20:42.900Z,100471.94
2018-04-26T02:23:47.081Z,100476.61
2018-04-26T02:26:50.476Z,100469.23
2018-04-26T02:29:53.872Z,100476.93
2018-04-26T02:32:57.272Z,100470.41
2018-04-26T02:36:00.590Z,100474.26
2018-04-26T02:39:03.939Z,100470.64
2018-04-26T02:42:07.248Z,100470.87
2018-04-26T02:45:10.582Z,100475.06
2018-04-26T02:48:14.211Z,100473.72
2018-04-26T02:51:18.307Z,100478.74
2018-04-26T02:54:22.413Z,100479.77
2018-04-26T02:57:25.851Z,100473.86
2018-04-26T03:00:29.139Z,100478.39
2018-04-26T03:03:32.510Z,100471.49
2018-04-26T03:06:35.905Z,100474.81
2018-04-26T03:09:39.471Z,100468.15
2018-04-26T03:12:42.784Z,100477.25
2018-04-26T03:15:46.209Z,100471.50
2018-04-26T03:18:49.530Z,100473.02
2018-04-26T03:21:52.869Z,100471.72
2018-04-26T03:24:56.196Z,100471.96
2018-04-26T03:27:59.600Z,100466.66
2018-04-26T03:31:03.113Z,100469.51
2018-04-26T03:34:06.467Z,100466.86
2018-04-26T03:37:09.794Z,100467.20
2018-04-26T03:40:13.222Z,100466.45
2018-04-26T03:43:16.618Z,100470.15
2018-04-26T03:46:20.000Z,100466.64
2018-04-26T03:49:23.400Z,100470.31
2018-04-26T03:52:26.798Z,100470.16
2018-04-26T03:55:30.106Z,100476.59
2018-04-26T03:58:33.497Z,100473.67
2018-04-26T04:01:54.812Z,100468.92
2018-04-26T04:05:25.030Z,100471.09
2018-04-26T04:08:28.345Z,100468.08
2018-04-26T04:11:31.681Z,100469.00
2018-04-26T04:14:35.047Z,100459.90
2018-04-26T04:17:38.387Z,100467.14
2018-04-26T04:20:42.453Z,100471.45
2018-04-26T04:23:45.784Z,100478.46
2018-04-26T04:26:49.090Z,100475.03
2018-04-26T04:29:52.413Z,100478.48
2018-04-26T04:32:55.713Z,100477.76
2018-04-26T04:35:59.050Z,100481.64
2018-04-26T04:39:02.464Z,100474.31
2018-04-26T04:42:05.852Z,100477.69
2018-04-26T04:45:09.269Z,100482.70
2018-04-26T04:48:13.294Z,100485.99
2018-04-26T04:51:16.671Z,100486.73
2018-04-26T04:54:19.999Z,100489.16
2018-04-26T04:57:24.267Z,100489.48
2018-04-26T05:00:27.680Z,100485.79
2018-04-26T05:03:31.096Z,100487.08
2018-04-26T05:06:34.473Z,100490.84
2018-04-26T05:09:37.881Z,100495.34
2018-04-26T05:12:41.282Z,100498.06
2018-04-26T05:15:44.672Z,100502.98
2018-04-26T05:18:48.081Z,100500.87
2018-04-26T05:21:51.386Z,100502.66
2018-04-26T05:24:54.737Z,100504.56
2018-04-26T05:27:58.080Z,100502.23
2018-04-26T05:31:01.401Z,100507.20
2018-04-26T05:34:04.697Z,100500.62
2018-04-26T05:37:08.069Z,100503.91
2018-04-26T05:40:11.430Z,100502.84
2018-04-26T05:43:14.761Z,100503.56
2018-04-26T05:46:18.167Z,100505.89
2018-04-26T05:49:21.569Z,100498.92
2018-04-26T05:52:24.872Z,100502.91
2018-04-26T05:55:28.252Z,100509.61
2018-04-26T05:58:31.875Z,100510.16
2018-04-26T06:01:36.021Z,100509.06
2018-04-26T06:04:39.398Z,100517.42
2018-04-26T06:07:42.794Z,100506.98
2018-04-26T06:10:46.089Z,100517.65
2018-04-26T06:13:49.491Z,100521.23
2018-04-26T06:16:52.824Z,100516.84
2018-04-26T06:19:57.015Z,100523.36
2018-04-26T06:23:00.405Z,100531.48
2018-04-26T06:26:03.806Z,100538.29
2018-04-26T06:29:07.198Z,100537.63
2018-04-26T06:32:10.610Z,100537.70
2018-04-26T06:35:14.010Z,100537.42
2018-04-26T06:38:17.372Z,100539.19
2018-04-26T06:41:20.719Z,100536.12
2018-04-26T06:44:24.106Z,100539.91
2018-04-26T06:47:27.423Z,100531.31
2018-04-26T06:50:30.759Z,100534.34
2018-04-26T06:53:34.078Z,100532.55
2018-04-26T06:56:37.426Z,100525.54
2018-04-26T06:59:41.508Z,100529.91
2018-04-26T07:02:44.911Z,100531.67
2018-04-26T07:05:48.292Z,100528.03
2018-04-26T07:08:51.617Z,100533.38
2018-04-26T07:11:55.100Z,100533.20
2018-04-26T07:14:58.395Z,100547.20
2018-04-26T07:18:01.705Z,100547.82
2018-04-26T07:21:05.120Z,100539.30
2018-04-26T07:24:08.443Z,100543.86
2018-04-26T07:27:12.636Z,100546.86
2018-04-26T07:30:16.034Z,100547.02
2018-04-26T07:33:19.379Z,100546.05
2018-04-26T07:36:22.726Z,100553.12
2018-04-26T07:39:26.121Z,100549.53
2018-04-26T07:42:29.520Z,100561.77
2018-04-26T07:45:32.937Z,100554.61
2018-04-26T07:48:36.253Z,100558.64
2018-04-26T07:51:40.434Z,100555.28
2018-04-26T07:54:43.882Z,100561.57
2018-04-26T07:57:48.072Z,100561.31
2018-04-26T08:00:51.448Z,100555.95
2018-04-26T08:03:54.853Z,100556.09
2018-04-26T08:06:58.168Z,100556.69
2018-04-26T08:10:01.548Z,100564.20
2018-04-26T08:13:04.849Z,100564.62
2018-04-26T08:16:08.177Z,100566.37
2018-04-26T08:19:11.562Z,100569.70
2018-04-26T08:22:14.904Z,100563.63
2018-04-26T08:25:18.968Z,100575.55
2018-04-26T08:28:22.358Z,100582.43
2018-04-26T08:31:25.767Z,100581.40
2018-04-26T08:34:29.115Z,100587.75
2018-04-26T08:37:33.184Z,100587.73
2018-04-26T08:40:36.512Z,100591.98
2018-04-26T08:43:39.822Z,100596.47
2018-04-26T08:46:44.669Z,100596.14
2018-04-26T08:49:48.110Z,100593.00
2018-04-26T08:52:51.518Z,100601.20
2018-04-26T08:55:54.826Z,100606.18
2018-04-26T08:58:58.166Z,100601.35
2018-04-26T09:02:01.515Z,100614.78
2018-04-26T09:05:04.872Z,100628.09
2018-04-26T09:08:08.197Z,100623.58
2018-04-26T09:11:11.521Z,100627.58
2018-04-26T09:14:14.901Z,100617.47
2018-04-26T09:17:18.269Z,100631.89
2018-04-26T09:20:21.589Z,100627.87
2018-04-26T09:23:24.952Z,100618.06
2018-04-26T09:26:28.288Z,100627.05
2018-04-26T09:29:31.638Z,100626.95
2018-04-26T09:32:36.517Z,100631.18
2018-04-26T09:35:39.857Z,100631.62
2018-04-26T09:38:43.219Z,100629.10
2018-04-26T09:41:46.582Z,100631.47
2018-04-26T09:44:49.899Z,100627.81
2018-04-26T09:47:53.227Z,100639.78
2018-04-26T09:50:56.618Z,100634.10
2018-04-26T09:53:59.920Z,100628.92
2018-04-26T09:57:03.388Z,100628.41
2018-04-26T10:00:06.722Z,100638.95
2018-04-26T10:03:10.121Z,100633.66
2018-04-26T10:06:30.663Z,100642.62
2018-04-26T10:09:34.899Z,100647.74
2018-04-26T10:12:38.252Z,100652.67
2018-04-26T10:15:41.592Z,100635.72
2018-04-26T10:18:44.917Z,100644.33
2018-04-26T10:21:48.233Z,100642.80
2018-04-26T10:24:51.554Z,100655.66
2018-04-26T10:27:54.885Z,100656.12
2018-04-26T10:30:58.226Z,100660.16
2018-04-26T10:34:01.529Z,100663.50
2018-04-26T10:37:04.857Z,100664.83
2018-04-26T10:40:08.946Z,100662.02
2018-04-26T10:43:12.278Z,100667.63
2018-04-26T10:46:16.458Z,100670.09
2018-04-26T10:49:19.874Z,100662.19
2018-04-26T10:52:23.205Z,100672.28
2018-04-26T10:55:27.369Z,100662.07
2018-04-26T10:58:30.692Z,100657.77
2018-04-26T11:01:34.080Z,100655.05
2018-04-26T11:04:37.427Z,100663.28
2018-04-26T11:07:40.766Z,100658.59
2018-04-26T11:10:44.063Z,100667.08
2018-04-26T11:13:47.474Z,100678.39
2018-04-26T11:16:50.861Z,100668.50
2018-04-26T11:19:54.182Z,100674.37
2018-04-26T11:22:57.514Z,100666.28
2018-04-26T11:26:02.341Z,100665.89
2018-04-26T11:29:05.652Z,100668.11
2018-04-26T11:32:08.983Z,100670.30
2018-04-26T11:35:12.294Z,100679.00
2018-04-26T11:38:15.692Z,100679.43
2018-04-26T11:41:19.047Z,100686.26
2018-04-26T11:44:22.398Z,100701.91
2018-04-26T11:47:25.807Z,100704.31
2018-04-26T11:50:29.194Z,100711.28
2018-04-26T11:53:32.508Z,100715.91
2018-04-26T11:56:35.881Z,100708.45
2018-04-26T11:59:39.310Z,100719.25
2018-04-26T12:02:43.613Z,100705.50
2018-04-26T12:05:46.861Z,100710.97
2018-04-26T12:08:50.204Z,100716.94
2018-04-26T12:11:53.602Z,100715.84
2018-04-26T12:14:56.919Z,100721.83
2018-04-26T12:18:00.362Z,100732.33
2018-04-26T12:21:03.706Z,100724.59
2018-04-26T12:24:07.131Z,100728.39
2018-04-26T12:27:10.452Z,100721.19
2018-04-26T12:30:13.813Z,100729.31
2018-04-26T12:33:17.153Z,100745.52
2018-04-26T12:36:20.481Z,100748.67
2018-04-26T12:39:23.792Z,100759.42
2018-04-26T12:42:27.196Z,100769.64
2018-04-26T12:45:31.208Z,100763.89
2018-04-26T12:48:34.559Z,100753.95
2018-04-26T12:51:37.890Z,100756.88
2018-04-26T12:54:41.305Z,100761.88
2018-04-26T12:57:44.705Z,100766.47
2018-04-26T13:00:48.061Z,100771.88
2018-04-26T13:03:51.460Z,100772.25
2018-04-26T13:06:54.798Z,100774.27
2018-04-26T13:09:58.197Z,100772.94
2018-04-26T13:13:01.610Z,100775.23
2018-04-26T13:16:05.064Z,100776.53
2018-04-26T13:19:08.379Z,100776.28
2018-04-26T13:22:11.759Z,100784.72
2018-04-26T13:25:15.102Z,100788.36
2018-04-26T13:28:18.440Z,100794.71
2018-04-26T13:31:22.620Z,100785.28
2018-04-26T13:34:26.015Z,100778.06
2018-04-26T13:37:29.369Z,100795.91
2018-04-26T13:40:32.772Z,100794.10
2018-04-26T13:43:36.088Z,100805.33
2018-04-26T13:46:39.469Z,100811.17
2018-04-26T13:49:42.819Z,100812.92
2018-04-26T13:52:46.269Z,100814.59
2018-04-26T13:55:49.646Z,100822.16
2018-04-26T13:58:53.754Z,100806.77
2018-04-26T14:01:57.142Z,100812.48
2018-04-26T14:05:00.625Z,100819.83
2018-04-26T14:08:04.054Z,100809.72
2018-04-26T14:11:08.972Z,100821.89
2018-04-26T14:14:12.365Z,100828.97
2018-04-26T14:17:15.780Z,100827.39
2018-04-26T14:20:19.165Z,100817.67
2018-04-26T14:23:22.660Z,100821.27
2018-04-26T14:26:25.996Z,100838.88
2018-04-26T14:29:30.245Z,100831.98
2018-04-26T14:32:33.613Z,100829.13
2018-04-26T14:35:37.711Z,100831.45
2018-04-26T14:38:41.052Z,100827.80
2018-04-26T14:41:45.161Z,100834.38
2018-04-26T14:44:49.240Z,100825.45
2018-04-26T14:47:52.567Z,100830.16
2018-04-26T14:50:56.649Z,100839.41
2018-04-26T14:54:00.049Z,100835.11
2018-04-26T14:57:03.396Z,100825.69
2018-04-26T15:00:06.690Z,100833.56
2018-04-26T15:03:10.862Z,100830.39
2018-04-26T15:06:14.177Z,100825.25
2018-04-26T15:09:17.511Z,100828.38
2018-04-26T15:12:22.350Z,100827.18
2018-04-26T15:15:25.733Z,100833.94
2018-04-26T15:18:29.150Z,100831.75
2018-04-26T15:21:32.498Z,100843.00
2018-04-26T15:24:35.921Z,100837.17
2018-04-26T15:27:39.304Z,100842.61
2018-04-26T15:30:42.749Z,100856.72
2018-04-26T15:33:46.082Z,100837.01
2018-04-26T15:36:49.413Z,100843.07
2018-04-26T15:39:52.730Z,100848.15
2018-04-26T15:42:57.206Z,100851.78
2018-04-26T15:46:00.622Z,100850.27
2018-04-26T15:49:03.947Z,100855.98
2018-04-26T15:52:08.144Z,100856.53
2018-04-26T15:55:30.950Z,100865.48
2018-04-26T16:03:02.796Z,100868.93
2018-04-26T16:10:17.266Z,100884.15
2018-04-26T16:13:44.105Z,100883.74
2018-04-26T16:17:25.473Z,100881.91
2018-04-26T16:20:52.163Z,100883.65
2018-04-26T16:24:18.849Z,100882.14
2018-04-26T16:27:43.766Z,100874.20
2018-04-26T16:31:10.637Z,100877.28
2018-04-26T16:34:43.920Z,100874.03
2018-04-26T16:38:10.670Z,100881.43
2018-04-26T16:41:14.090Z,100885.81
2018-04-26T16:44:17.447Z,100891.48
2018-04-26T16:47:20.750Z,100886.23
2018-04-26T16:50:24.086Z,100886.30
2018-04-26T16:53:27.421Z,100890.92
2018-04-26T16:56:30.807Z,100894.14
2018-04-26T16:59:34.217Z,100896.31
2018-04-26T17:02:37.625Z,100904.06
2018-04-26T17:05:41.733Z,100902.36
2018-04-26T17:08:45.127Z,100900.42
2018-04-26T17:11:48.455Z,100894.91
2018-04-26T17:14:52.528Z,100914.77
2018-04-26T17:17:55.848Z,100915.74
2018-04-26T17:20:59.236Z,100920.17
2018-04-26T17:24:02.751Z,100915.86
2018-04-26T17:27:06.136Z,100924.34
2018-04-26T17:30:09.551Z,100929.55
2018-04-26T17:33:12.863Z,100926.83
2018-04-26T17:36:16.952Z,100928.20
2018-04-26T17:39:20.431Z,100926.53
2018-04-26T17:42:23.811Z,100931.88
2018-04-26T17:45:28.810Z,100935.86
2018-04-26T17:48:32.993Z,100939.15
2018-04-26T17:51:36.396Z,100938.02
2018-04-26T17:54:39.951Z,100944.73
2018-04-26T17:57:43.289Z,100950.33
2018-04-26T18:00:46.828Z,100947.88
2018-04-26T18:03:50.243Z,100944.83
2018-04-26T18:06:54.339Z,100940.02
2018-04-26T18:09:57.721Z,100941.87
2018-04-26T18:13:01.121Z,100956.85
2018-04-26T18:16:04.506Z,100952.40
2018-04-26T18:19:07.936Z,100950.51
2018-04-26T18:22:11.263Z,100957.09
2018-04-26T18:25:15.452Z,100964.08
2018-04-26T18:28:19.554Z,100963.75
2018-04-26T18:31:22.961Z,100968.50
2018-04-26T18:34:26.288Z,100967.47
2018-04-26T18:37:29.664Z,100968.69
2018-04-26T18:40:33.004Z,100976.38
2018-04-26T18:43:36.343Z,100976.77
2018-04-26T18:46:39.702Z,100981.88
2018-04-26T18:49:42.999Z,100986.34
2018-04-26T18:52:46.457Z,100991.59
2018-04-26T18:55:49.773Z,100988.98
2018-04-26T18:58:53.154Z,100996.20
2018-04-26T19:01:56.540Z,101001.72
2018-04-26T19:04:59.940Z,100994.52
2018-04-26T19:08:03.329Z,100998.27
2018-04-26T19:11:06.658Z,100999.87
2018-04-26T19:14:10.072Z,101006.83
2018-04-26T19:17:14.938Z,100998.77
2018-04-26T19:20:18.297Z,101005.99
2018-04-26T19:23:21.637Z,101009.55
2018-04-26T19:26:25.010Z,101014.72
2018-04-26T19:29:29.153Z,101017.33
2018-04-26T19:32:32.514Z,101016.09
2018-04-26T19:35:35.860Z,101011.43
2018-04-26T19:38:39.203Z,101019.70
2018-04-26T19:41:42.688Z,101019.11
2018-04-26T19:44:46.174Z,101011.27
2018-04-26T19:47:49.593Z,101018.55
2018-04-26T19:50:53.054Z,101018.62
2018-04-26T19:53:56.401Z,101021.78
2018-04-26T19:57:00.519Z,101021.08
2018-04-26T20:00:03.831Z,101014.82
2018-04-26T20:03:07.213Z,101015.77
2018-04-26T20:06:10.546Z,101017.40
2018-04-26T20:09:14.643Z,101016.45
2018-04-26T20:12:17.969Z,101018.56
2018-04-26T20:15:22.138Z,101011.71
2018-04-26T20:18:25.605Z,101009.22
2018-04-26T20:21:28.935Z,101006.27
2018-04-26T20:24:32.237Z,101004.23
2018-04-26T20:27:35.645Z,101002.00
2018-04-26T20:30:40.057Z,101005.05
2018-04-26T20:33:43.456Z,101000.49
2018-04-26T20:36:47.596Z,101007.92
2018-04-26T20:39:50.929Z,101000.08
2018-04-26T20:42:54.266Z,100997.48
2018-04-26T20:45:57.600Z,100996.18
2018-04-26T20:49:00.913Z,100994.03
2018-04-26T20:52:05.077Z,100993.31
2018-04-26T20:55:08.381Z,100996.70
2018-04-26T20:58:11.711Z,100994.89
2018-04-26T21:01:15.895Z,100991.97
2018-04-26T21:04:19.220Z,100993.73
2018-04-26T21:07:22.594Z,100994.11
2018-04-26T21:10:25.990Z,101000.30
2018-04-26T21:13:29.307Z,100995.26
2018-04-26T21:16:32.680Z,100992.59
2018-04-26T21:19:35.986Z,100989.06
2018-04-26T21:22:39.299Z,100995.64
2018-04-26T21:25:42.701Z,100988.71
2018-04-26T21:28:46.028Z,100993.23
2018-04-26T21:31:50.218Z,100993.45
2018-04-26T21:34:53.608Z,100994.76
2018-04-26T21:37:56.927Z,100998.48
2018-04-26T21:41:00.300Z,100996.24
2018-04-26T21:44:03.704Z,100993.52
2018-04-26T21:47:07.034Z,100994.80
2018-04-26T21:50:15.933Z,100993.27
2018-04-26T21:53:24.766Z,100986.91
2018-04-26T21:56:33.865Z,100984.48
2018-04-26T21:59:42.563Z,100985.20
2018-04-26T22:02:46.019Z,100989.08
2018-04-26T22:05:49.350Z,100985.48
2018-04-26T22:08:53.548Z,100988.78
2018-04-26T22:11:56.870Z,100991.07
2018-04-26T22:15:00.965Z,100994.53
2018-04-26T22:18:05.056Z,101004.23
2018-04-26T22:21:08.387Z,101005.89
2018-04-26T22:24:11.697Z,100985.53
2018-04-26T22:27:15.784Z,100990.63
2018-04-26T22:30:19.184Z,100985.06
2018-04-26T22:33:22.501Z,100992.31
2018-04-26T22:36:25.805Z,100992.62
2018-04-26T22:39:29.135Z,100998.81
2018-04-26T22:42:32.452Z,100989.56
2018-04-26T22:45:35.776Z,100985.82
2018-04-26T22:48:39.600Z,100987.80
2018-04-26T22:51:42.981Z,100980.80
2018-04-26T22:54:46.380Z,100984.61
2018-04-26T22:57:49.779Z,100990.41
2018-04-26T23:00:53.180Z,100990.71
2018-04-26T23:03:56.534Z,100989.04
2018-04-26T23:06:59.889Z,100987.41
2018-04-26T23:10:03.284Z,100988.20
2018-04-26T23:13:07.362Z,100984.25
2018-04-26T23:16:10.680Z,100975.08
2018-04-26T23:19:13.972Z,100980.58
2018-04-26T23:22:17.382Z,100979.94
2018-04-26T23:25:20.761Z,100982.00
2018-04-26T23:28:24.040Z,100984.00
2018-04-26T23:31:27.386Z,100988.89
2018-04-26T23:34:30.772Z,100983.99
2018-04-26T23:37:34.169Z,100978.26
2018-04-26T23:40:37.615Z,100985.08
2018-04-26T23:43:41.823Z,100988.39
2018-04-26T23:46:45.198Z,100985.86
2018-04-26T23:49:48.506Z,100977.02
2018-04-26T23:52:51.898Z,100980.66
2018-04-26T23:55:55.299Z,100980.50
2018-04-26T23:58:58.694Z,100989.80
